sensor_id;sensor_type;location;lat;lon;timestamp;temperature;humidity
28175;SHT30;59417;44.788;10.334;2023-03-14T00:00:58;13.95;75.49
28175;SHT30;59417;44.788;10.334;2023-03-14T00:03:23;13.89;75.76
28175;SHT30;59417;44.788;10.334;2023-03-14T00:05:49;14.02;75.31
28175;SHT30;59417;44.788;10.334;2023-03-14T00:08:15;13.79;75.60
28175;SHT30;59417;44.788;10.334;2023-03-14T00:10:41;14.02;74.87
28175;SHT30;59417;44.788;10.334;2023-03-14T00:13:06;13.81;74.96
28175;SHT30;59417;44.788;10.334;2023-03-14T00:15:35;13.92;74.41
28175;SHT30;59417;44.788;10.334;2023-03-14T00:18:00;13.77;74.54
28175;SHT30;59417;44.788;10.334;2023-03-14T00:20:26;13.77;74.35
28175;SHT30;59417;44.788;10.334;2023-03-14T00:22:52;13.88;73.93
28175;SHT30;59417;44.788;10.334;2023-03-14T00:25:17;13.98;73.31
28175;SHT30;59417;44.788;10.334;2023-03-14T00:27:43;13.92;73.18
28175;SHT30;59417;44.788;10.334;2023-03-14T00:30:12;13.71;73.78
28175;SHT30;59417;44.788;10.334;2023-03-14T00:32:37;13.68;73.79
28175;SHT30;59417;44.788;10.334;2023-03-14T00:35:03;13.66;73.52
28175;SHT30;59417;44.788;10.334;2023-03-14T00:37:31;13.65;73.73
28175;SHT30;59417;44.788;10.334;2023-03-14T00:39:57;13.72;73.76
28175;SHT30;59417;44.788;10.334;2023-03-14T00:42:24;13.79;73.79
28175;SHT30;59417;44.788;10.334;2023-03-14T00:44:50;13.86;73.82
28175;SHT30;59417;44.788;10.334;2023-03-14T00:47:15;13.77;74.50
28175;SHT30;59417;44.788;10.334;2023-03-14T00:49:41;13.74;75.00
28175;SHT30;59417;44.788;10.334;2023-03-14T00:52:09;13.77;75.15
28175;SHT30;59417;44.788;10.334;2023-03-14T00:54:34;13.72;75.59
28175;SHT30;59417;44.788;10.334;2023-03-14T00:57:00;13.74;76.23
28175;SHT30;59417;44.788;10.334;2023-03-14T00:59:25;13.65;76.66
28175;SHT30;59417;44.788;10.334;2023-03-14T01:01:51;13.62;76.79
28175;SHT30;59417;44.788;10.334;2023-03-14T01:04:18;13.66;76.50
28175;SHT30;59417;44.788;10.334;2023-03-14T01:06:44;13.59;76.78
28175;SHT30;59417;44.788;10.334;2023-03-14T01:09:10;13.54;76.85
28175;SHT30;59417;44.788;10.334;2023-03-14T01:11:35;13.54;76.86
28175;SHT30;59417;44.788;10.334;2023-03-14T01:14:01;13.43;77.06
28175;SHT30;59417;44.788;10.334;2023-03-14T01:16:30;13.53;76.80
28175;SHT30;59417;44.788;10.334;2023-03-14T01:18:59;13.45;76.88
28175;SHT30;59417;44.788;10.334;2023-03-14T01:21:28;13.44;76.98
28175;SHT30;59417;44.788;10.334;2023-03-14T01:23:55;13.28;77.08
28175;SHT30;59417;44.788;10.334;2023-03-14T01:26:23;13.45;76.88
28175;SHT30;59417;44.788;10.334;2023-03-14T01:28:51;13.34;77.03
28175;SHT30;59417;44.788;10.334;2023-03-14T01:31:18;13.37;76.98
28175;SHT30;59417;44.788;10.334;2023-03-14T01:33:44;13.38;76.97
28175;SHT30;59417;44.788;10.334;2023-03-14T01:36:10;13.34;76.93
28175;SHT30;59417;44.788;10.334;2023-03-14T01:38:37;13.37;77.05
28175;SHT30;59417;44.788;10.334;2023-03-14T01:41:04;13.27;76.98
28175;SHT30;59417;44.788;10.334;2023-03-14T01:43:30;13.20;76.71
28175;SHT30;59417;44.788;10.334;2023-03-14T01:48:42;13.27;76.68
28175;SHT30;59417;44.788;10.334;2023-03-14T01:51:28;13.40;76.35
28175;SHT30;59417;44.788;10.334;2023-03-14T01:54:02;13.35;76.51
28175;SHT30;59417;44.788;10.334;2023-03-14T01:56:30;13.26;76.67
28175;SHT30;59417;44.788;10.334;2023-03-14T01:58:57;13.20;76.55
28175;SHT30;59417;44.788;10.334;2023-03-14T02:01:25;13.24;76.42
28175;SHT30;59417;44.788;10.334;2023-03-14T02:03:56;13.11;76.25
28175;SHT30;59417;44.788;10.334;2023-03-14T02:06:29;13.13;76.82
28175;SHT30;59417;44.788;10.334;2023-03-14T02:09:00;13.21;76.46
28175;SHT30;59417;44.788;10.334;2023-03-14T02:11:29;13.19;76.39
28175;SHT30;59417;44.788;10.334;2023-03-14T02:14:16;13.21;76.10
28175;SHT30;59417;44.788;10.334;2023-03-14T02:17:17;13.11;76.31
28175;SHT30;59417;44.788;10.334;2023-03-14T02:20:14;13.20;76.08
28175;SHT30;59417;44.788;10.334;2023-03-14T02:22:45;12.87;76.82
28175;SHT30;59417;44.788;10.334;2023-03-14T02:27:57;12.99;76.43
28175;SHT30;59417;44.788;10.334;2023-03-14T02:30:28;12.87;76.19
28175;SHT30;59417;44.788;10.334;2023-03-14T02:33:00;12.95;76.47
28175;SHT30;59417;44.788;10.334;2023-03-14T02:35:30;12.99;76.07
28175;SHT30;59417;44.788;10.334;2023-03-14T02:40:26;12.90;76.03
28175;SHT30;59417;44.788;10.334;2023-03-14T02:42:52;13.07;75.68
28175;SHT30;59417;44.788;10.334;2023-03-14T02:47:49;12.90;76.14
28175;SHT30;59417;44.788;10.334;2023-03-14T02:50:25;12.79;76.25
28175;SHT30;59417;44.788;10.334;2023-03-14T02:52:53;12.62;76.73
28175;SHT30;59417;44.788;10.334;2023-03-14T02:55:22;12.76;76.77
28175;SHT30;59417;44.788;10.334;2023-03-14T02:57:53;12.83;76.37
28175;SHT30;59417;44.788;10.334;2023-03-14T03:00:19;12.72;76.58
28175;SHT30;59417;44.788;10.334;2023-03-14T03:02:45;12.86;76.50
28175;SHT30;59417;44.788;10.334;2023-03-14T03:05:13;12.86;76.39
28175;SHT30;59417;44.788;10.334;2023-03-14T03:07:38;12.72;76.45
28175;SHT30;59417;44.788;10.334;2023-03-14T03:10:04;12.63;77.26
28175;SHT30;59417;44.788;10.334;2023-03-14T03:12:30;12.83;76.41
28175;SHT30;59417;44.788;10.334;2023-03-14T03:14:58;12.83;76.06
28175;SHT30;59417;44.788;10.334;2023-03-14T03:17:23;12.77;76.75
28175;SHT30;59417;44.788;10.334;2023-03-14T03:19:49;12.80;76.56
28175;SHT30;59417;44.788;10.334;2023-03-14T03:22:15;12.76;76.55
28175;SHT30;59417;44.788;10.334;2023-03-14T03:24:40;12.69;76.78
28175;SHT30;59417;44.788;10.334;2023-03-14T03:27:06;12.52;77.22
28175;SHT30;59417;44.788;10.334;2023-03-14T03:29:31;12.58;77.01
28175;SHT30;59417;44.788;10.334;2023-03-14T03:31:57;12.63;77.36
28175;SHT30;59417;44.788;10.334;2023-03-14T03:34:22;12.58;77.34
28175;SHT30;59417;44.788;10.334;2023-03-14T03:36:51;12.62;77.54
28175;SHT30;59417;44.788;10.334;2023-03-14T03:39:17;12.37;78.32
28175;SHT30;59417;44.788;10.334;2023-03-14T03:41:46;12.24;78.96
28175;SHT30;59417;44.788;10.334;2023-03-14T03:44:11;12.28;78.90
28175;SHT30;59417;44.788;10.334;2023-03-14T03:46:38;12.39;78.50
28175;SHT30;59417;44.788;10.334;2023-03-14T03:49:04;12.05;79.42
28175;SHT30;59417;44.788;10.334;2023-03-14T03:51:29;11.87;80.47
28175;SHT30;59417;44.788;10.334;2023-03-14T03:53:56;11.84;81.18
28175;SHT30;59417;44.788;10.334;2023-03-14T03:56:27;11.60;82.01
28175;SHT30;59417;44.788;10.334;2023-03-14T03:58:53;11.56;82.35
28175;SHT30;59417;44.788;10.334;2023-03-14T04:01:18;11.62;82.01
28175;SHT30;59417;44.788;10.334;2023-03-14T04:03:48;11.55;82.67
28175;SHT30;59417;44.788;10.334;2023-03-14T04:06:14;11.67;82.01
28175;SHT30;59417;44.788;10.334;2023-03-14T04:08:42;11.67;81.81
28175;SHT30;59417;44.788;10.334;2023-03-14T04:11:14;11.78;81.70
28175;SHT30;59417;44.788;10.334;2023-03-14T04:13:58;11.90;80.77
28175;SHT30;59417;44.788;10.334;2023-03-14T04:16:25;12.14;80.49
28175;SHT30;59417;44.788;10.334;2023-03-14T04:19:01;12.22;80.02
28175;SHT30;59417;44.788;10.334;2023-03-14T04:21:26;12.27;79.76
28175;SHT30;59417;44.788;10.334;2023-03-14T04:23:55;12.34;79.86
28175;SHT30;59417;44.788;10.334;2023-03-14T04:26:22;12.21;79.65
28175;SHT30;59417;44.788;10.334;2023-03-14T04:28:47;12.25;79.38
28175;SHT30;59417;44.788;10.334;2023-03-14T04:31:18;12.27;79.87
28175;SHT30;59417;44.788;10.334;2023-03-14T04:33:45;12.22;80.08
28175;SHT30;59417;44.788;10.334;2023-03-14T04:36:12;12.07;80.93
28175;SHT30;59417;44.788;10.334;2023-03-14T04:38:38;12.09;80.88
28175;SHT30;59417;44.788;10.334;2023-03-14T04:41:04;12.08;80.85
28175;SHT30;59417;44.788;10.334;2023-03-14T04:43:31;12.09;80.82
28175;SHT30;59417;44.788;10.334;2023-03-14T04:46:15;12.27;80.35
28175;SHT30;59417;44.788;10.334;2023-03-14T04:48:41;12.13;80.32
28175;SHT30;59417;44.788;10.334;2023-03-14T04:51:08;12.24;80.26
28175;SHT30;59417;44.788;10.334;2023-03-14T04:53:33;12.31;80.05
28175;SHT30;59417;44.788;10.334;2023-03-14T04:56:03;12.29;79.65
28175;SHT30;59417;44.788;10.334;2023-03-14T04:58:35;12.38;79.58
28175;SHT30;59417;44.788;10.334;2023-03-14T05:01:03;12.28;79.82
28175;SHT30;59417;44.788;10.334;2023-03-14T05:03:40;12.28;79.77
28175;SHT30;59417;44.788;10.334;2023-03-14T05:06:27;12.35;79.79
28175;SHT30;59417;44.788;10.334;2023-03-14T05:09:07;12.32;79.34
28175;SHT30;59417;44.788;10.334;2023-03-14T05:11:47;12.21;80.30
28175;SHT30;59417;44.788;10.334;2023-03-14T05:14:42;12.27;79.95
28175;SHT30;59417;44.788;10.334;2023-03-14T05:17:35;12.35;79.63
28175;SHT30;59417;44.788;10.334;2023-03-14T05:20:30;12.16;80.09
28175;SHT30;59417;44.788;10.334;2023-03-14T05:23:19;11.98;80.82
28175;SHT30;59417;44.788;10.334;2023-03-14T05:26:11;11.80;81.46
28175;SHT30;59417;44.788;10.334;2023-03-14T05:29:06;11.56;82.34
28175;SHT30;59417;44.788;10.334;2023-03-14T05:31:50;11.43;82.98
28175;SHT30;59417;44.788;10.334;2023-03-14T05:34:37;11.20;83.90
28175;SHT30;59417;44.788;10.334;2023-03-14T05:37:21;11.38;83.83
28175;SHT30;59417;44.788;10.334;2023-03-14T05:39:58;11.33;84.29
28175;SHT30;59417;44.788;10.334;2023-03-14T05:42:53;11.45;84.26
28175;SHT30;59417;44.788;10.334;2023-03-14T05:45:47;11.59;83.97
28175;SHT30;59417;44.788;10.334;2023-03-14T05:48:27;11.66;84.13
28175;SHT30;59417;44.788;10.334;2023-03-14T05:51:12;11.69;83.71
28175;SHT30;59417;44.788;10.334;2023-03-14T05:53:57;11.76;84.09
28175;SHT30;59417;44.788;10.334;2023-03-14T05:56:43;11.77;83.91
28175;SHT30;59417;44.788;10.334;2023-03-14T05:59:27;11.97;83.49
28175;SHT30;59417;44.788;10.334;2023-03-14T06:02:07;11.99;82.26
28175;SHT30;59417;44.788;10.334;2023-03-14T06:04:55;11.84;83.29
28175;SHT30;59417;44.788;10.334;2023-03-14T06:07:21;11.77;84.05
28175;SHT30;59417;44.788;10.334;2023-03-14T06:09:46;11.78;83.57
28175;SHT30;59417;44.788;10.334;2023-03-14T06:12:15;11.64;84.59
28175;SHT30;59417;44.788;10.334;2023-03-14T06:14:44;11.66;85.22
28175;SHT30;59417;44.788;10.334;2023-03-14T06:17:10;11.76;84.91
28175;SHT30;59417;44.788;10.334;2023-03-14T06:19:45;11.87;84.81
28175;SHT30;59417;44.788;10.334;2023-03-14T06:22:12;12.07;84.30
28175;SHT30;59417;44.788;10.334;2023-03-14T06:24:38;12.14;84.11
28175;SHT30;59417;44.788;10.334;2023-03-14T06:27:04;12.20;83.84
28175;SHT30;59417;44.788;10.334;2023-03-14T06:29:30;12.22;83.43
28175;SHT30;59417;44.788;10.334;2023-03-14T06:31:55;12.20;83.44
28175;SHT30;59417;44.788;10.334;2023-03-14T06:34:21;12.32;83.39
28175;SHT30;59417;44.788;10.334;2023-03-14T06:36:46;12.25;82.56
28175;SHT30;59417;44.788;10.334;2023-03-14T06:39:13;12.21;83.41
28175;SHT30;59417;44.788;10.334;2023-03-14T06:41:42;12.28;83.66
28175;SHT30;59417;44.788;10.334;2023-03-14T06:44:09;12.39;83.42
28175;SHT30;59417;44.788;10.334;2023-03-14T06:46:35;12.48;82.77
28175;SHT30;59417;44.788;10.334;2023-03-14T06:49:00;12.45;82.11
28175;SHT30;59417;44.788;10.334;2023-03-14T06:51:26;12.46;82.50
28175;SHT30;59417;44.788;10.334;2023-03-14T06:53:52;12.59;81.79
28175;SHT30;59417;44.788;10.334;2023-03-14T06:56:21;12.49;81.77
28175;SHT30;59417;44.788;10.334;2023-03-14T06:58:47;12.31;82.82
28175;SHT30;59417;44.788;10.334;2023-03-14T07:01:27;12.44;82.03
28175;SHT30;59417;44.788;10.334;2023-03-14T07:03:58;12.42;82.18
28175;SHT30;59417;44.788;10.334;2023-03-14T07:06:24;12.42;82.84
28175;SHT30;59417;44.788;10.334;2023-03-14T07:08:50;12.35;83.03
28175;SHT30;59417;44.788;10.334;2023-03-14T07:11:17;12.41;82.63
28175;SHT30;59417;44.788;10.334;2023-03-14T07:13:42;12.38;82.62
28175;SHT30;59417;44.788;10.334;2023-03-14T07:16:09;12.62;82.38
28175;SHT30;59417;44.788;10.334;2023-03-14T07:18:40;12.44;82.41
28175;SHT30;59417;44.788;10.334;2023-03-14T07:21:06;12.35;82.47
28175;SHT30;59417;44.788;10.334;2023-03-14T07:23:33;12.38;82.16
28175;SHT30;59417;44.788;10.334;2023-03-14T07:25:59;12.18;83.15
28175;SHT30;59417;44.788;10.334;2023-03-14T07:28:26;12.46;82.47
28175;SHT30;59417;44.788;10.334;2023-03-14T07:30:59;12.60;81.76
28175;SHT30;59417;44.788;10.334;2023-03-14T07:33:30;12.51;81.81
28175;SHT30;59417;44.788;10.334;2023-03-14T07:35:56;12.62;81.89
28175;SHT30;59417;44.788;10.334;2023-03-14T07:38:22;12.65;82.14
28175;SHT30;59417;44.788;10.334;2023-03-14T07:41:22;12.70;81.35
28175;SHT30;59417;44.788;10.334;2023-03-14T07:44:23;12.70;81.34
28175;SHT30;59417;44.788;10.334;2023-03-14T07:46:49;12.82;80.76
28175;SHT30;59417;44.788;10.334;2023-03-14T07:49:14;12.83;81.12
28175;SHT30;59417;44.788;10.334;2023-03-14T07:51:40;12.96;81.37
28175;SHT30;59417;44.788;10.334;2023-03-14T07:54:05;13.19;81.39
28175;SHT30;59417;44.788;10.334;2023-03-14T07:56:31;13.41;80.98
28175;SHT30;59417;44.788;10.334;2023-03-14T07:58:57;13.57;80.70
28175;SHT30;59417;44.788;10.334;2023-03-14T08:01:22;13.51;79.66
28175;SHT30;59417;44.788;10.334;2023-03-14T08:03:48;13.53;80.11
28175;SHT30;59417;44.788;10.334;2023-03-14T08:06:14;13.55;80.05
28175;SHT30;59417;44.788;10.334;2023-03-14T08:08:39;13.74;80.12
28175;SHT30;59417;44.788;10.334;2023-03-14T08:11:06;13.92;80.15
28175;SHT30;59417;44.788;10.334;2023-03-14T08:13:34;14.12;79.03
28175;SHT30;59417;44.788;10.334;2023-03-14T08:16:00;14.17;77.75
28175;SHT30;59417;44.788;10.334;2023-03-14T08:18:25;14.09;78.12
28175;SHT30;59417;44.788;10.334;2023-03-14T08:20:51;13.85;78.67
28175;SHT30;59417;44.788;10.334;2023-03-14T08:23:16;13.95;78.76
28175;SHT30;59417;44.788;10.334;2023-03-14T08:25:42;14.17;78.67
28175;SHT30;59417;44.788;10.334;2023-03-14T08:28:08;14.47;78.27
28175;SHT30;59417;44.788;10.334;2023-03-14T08:30:34;14.57;77.08
28175;SHT30;59417;44.788;10.334;2023-03-14T08:32:59;14.73;77.33
28175;SHT30;59417;44.788;10.334;2023-03-14T08:35:26;14.95;77.28
28175;SHT30;59417;44.788;10.334;2023-03-14T08:37:52;15.14;76.87
28175;SHT30;59417;44.788;10.334;2023-03-14T08:40:18;15.15;75.95
28175;SHT30;59417;44.788;10.334;2023-03-14T08:42:44;15.16;76.09
28175;SHT30;59417;44.788;10.334;2023-03-14T08:45:12;15.12;75.82
28175;SHT30;59417;44.788;10.334;2023-03-14T08:47:38;15.09;76.60
28175;SHT30;59417;44.788;10.334;2023-03-14T08:50:06;15.16;76.37
28175;SHT30;59417;44.788;10.334;2023-03-14T08:52:32;15.19;76.19
28175;SHT30;59417;44.788;10.334;2023-03-14T08:54:58;15.00;76.26
28175;SHT30;59417;44.788;10.334;2023-03-14T08:57:24;14.84;76.07
28175;SHT30;59417;44.788;10.334;2023-03-14T08:59:56;14.90;76.36
28175;SHT30;59417;44.788;10.334;2023-03-14T09:02:23;14.92;76.00
28175;SHT30;59417;44.788;10.334;2023-03-14T09:04:52;14.91;76.24
28175;SHT30;59417;44.788;10.334;2023-03-14T09:07:19;14.97;76.47
28175;SHT30;59417;44.788;10.334;2023-03-14T09:09:45;15.11;76.59
28175;SHT30;59417;44.788;10.334;2023-03-14T09:12:11;15.15;75.54
28175;SHT30;59417;44.788;10.334;2023-03-14T09:14:36;15.01;75.43
28175;SHT30;59417;44.788;10.334;2023-03-14T09:17:03;15.00;75.74
28175;SHT30;59417;44.788;10.334;2023-03-14T09:19:29;14.98;75.89
28175;SHT30;59417;44.788;10.334;2023-03-14T09:21:54;15.08;76.03
28175;SHT30;59417;44.788;10.334;2023-03-14T09:24:20;15.21;76.31
28175;SHT30;59417;44.788;10.334;2023-03-14T09:26:45;15.16;76.28
28175;SHT30;59417;44.788;10.334;2023-03-14T09:29:11;15.23;76.24
28175;SHT30;59417;44.788;10.334;2023-03-14T09:31:37;15.07;74.86
28175;SHT30;59417;44.788;10.334;2023-03-14T09:34:02;15.02;76.09
28175;SHT30;59417;44.788;10.334;2023-03-14T09:36:28;14.90;76.47
28175;SHT30;59417;44.788;10.334;2023-03-14T09:38:54;14.84;76.41
28175;SHT30;59417;44.788;10.334;2023-03-14T09:41:32;14.77;77.05
28175;SHT30;59417;44.788;10.334;2023-03-14T09:46:40;14.81;76.43
28175;SHT30;59417;44.788;10.334;2023-03-14T09:49:19;14.70;77.06
28175;SHT30;59417;44.788;10.334;2023-03-14T09:51:48;14.50;78.41
28175;SHT30;59417;44.788;10.334;2023-03-14T09:54:37;14.53;78.60
28175;SHT30;59417;44.788;10.334;2023-03-14T09:57:05;14.50;75.43
28175;SHT30;59417;44.788;10.334;2023-03-14T09:59:31;14.52;76.22
28175;SHT30;59417;44.788;10.334;2023-03-14T10:02:13;14.56;77.46
28175;SHT30;59417;44.788;10.334;2023-03-14T10:04:40;14.76;75.79
28175;SHT30;59417;44.788;10.334;2023-03-14T10:07:23;14.95;75.43
28175;SHT30;59417;44.788;10.334;2023-03-14T10:09:51;14.64;75.47
28175;SHT30;59417;44.788;10.334;2023-03-14T10:12:18;14.33;76.02
28175;SHT30;59417;44.788;10.334;2023-03-14T10:14:49;14.61;76.30
28175;SHT30;59417;44.788;10.334;2023-03-14T10:17:16;14.37;76.75
28175;SHT30;59417;44.788;10.334;2023-03-14T10:19:58;14.73;76.92
28175;SHT30;59417;44.788;10.334;2023-03-14T10:22:31;15.28;77.20
28175;SHT30;59417;44.788;10.334;2023-03-14T10:25:04;15.73;76.67
28175;SHT30;59417;44.788;10.334;2023-03-14T10:27:34;15.56;73.68
28175;SHT30;59417;44.788;10.334;2023-03-14T10:30:02;15.18;74.50
28175;SHT30;59417;44.788;10.334;2023-03-14T10:32:33;15.21;74.71
28175;SHT30;59417;44.788;10.334;2023-03-14T10:35:26;14.74;76.16
28175;SHT30;59417;44.788;10.334;2023-03-14T10:37:57;14.92;75.98
28175;SHT30;59417;44.788;10.334;2023-03-14T10:40:31;15.36;77.22
28175;SHT30;59417;44.788;10.334;2023-03-14T10:42:59;15.69;74.89
28175;SHT30;59417;44.788;10.334;2023-03-14T10:45:42;15.53;72.64
28175;SHT30;59417;44.788;10.334;2023-03-14T10:48:29;15.01;72.72
28175;SHT30;59417;44.788;10.334;2023-03-14T10:51:07;15.11;73.74
28175;SHT30;59417;44.788;10.334;2023-03-14T10:56:23;16.16;73.12
28175;SHT30;59417;44.788;10.334;2023-03-14T10:58:51;16.44;71.77
28175;SHT30;59417;44.788;10.334;2023-03-14T11:01:55;16.75;69.98
28175;SHT30;59417;44.788;10.334;2023-03-14T11:07:09;16.69;71.96
28175;SHT30;59417;44.788;10.334;2023-03-14T11:10:02;16.61;71.15
28175;SHT30;59417;44.788;10.334;2023-03-14T11:13:00;16.48;70.08
28175;SHT30;59417;44.788;10.334;2023-03-14T11:15:41;16.25;69.91
28175;SHT30;59417;44.788;10.334;2023-03-14T11:26:52;14.90;73.72
28175;SHT30;59417;44.788;10.334;2023-03-14T11:29:34;14.80;74.22
28175;SHT30;59417;44.788;10.334;2023-03-14T11:32:07;15.01;75.07
28175;SHT30;59417;44.788;10.334;2023-03-14T11:37:29;15.02;75.96
28175;SHT30;59417;44.788;10.334;2023-03-14T11:40:13;14.76;73.74
28175;SHT30;59417;44.788;10.334;2023-03-14T11:42:42;14.76;73.93
28175;SHT30;59417;44.788;10.334;2023-03-14T11:45:32;14.77;74.06
28175;SHT30;59417;44.788;10.334;2023-03-14T11:51:17;14.95;73.14
28175;SHT30;59417;44.788;10.334;2023-03-14T11:53:50;15.07;73.22
28175;SHT30;59417;44.788;10.334;2023-03-14T11:56:26;15.16;73.53
28175;SHT30;59417;44.788;10.334;2023-03-14T11:58:59;15.32;73.52
28175;SHT30;59417;44.788;10.334;2023-03-14T12:01:52;15.61;72.27
28175;SHT30;59417;44.788;10.334;2023-03-14T12:04:47;15.56;72.13
28175;SHT30;59417;44.788;10.334;2023-03-14T12:07:31;15.63;73.19
28175;SHT30;59417;44.788;10.334;2023-03-14T12:09:59;15.39;73.07
28175;SHT30;59417;44.788;10.334;2023-03-14T12:12:28;15.25;73.25
28175;SHT30;59417;44.788;10.334;2023-03-14T12:14:57;15.00;74.41
28175;SHT30;59417;44.788;10.334;2023-03-14T12:17:39;15.08;74.38
28175;SHT30;59417;44.788;10.334;2023-03-14T12:22:54;15.35;72.06
28175;SHT30;59417;44.788;10.334;2023-03-14T12:25:26;15.39;73.33
28175;SHT30;59417;44.788;10.334;2023-03-14T12:30:39;15.22;72.36
28175;SHT30;59417;44.788;10.334;2023-03-14T12:35:37;14.91;75.47
28175;SHT30;59417;44.788;10.334;2023-03-14T12:38:15;15.23;74.08
28175;SHT30;59417;44.788;10.334;2023-03-14T12:43:28;15.28;73.76
28175;SHT30;59417;44.788;10.334;2023-03-14T12:46:20;15.46;73.58
28175;SHT30;59417;44.788;10.334;2023-03-14T12:49:13;15.39;72.24
28175;SHT30;59417;44.788;10.334;2023-03-14T12:51:41;15.59;70.59
28175;SHT30;59417;44.788;10.334;2023-03-14T12:59:50;15.97;70.32
28175;SHT30;59417;44.788;10.334;2023-03-14T13:08:12;15.69;71.76
28175;SHT30;59417;44.788;10.334;2023-03-14T13:10:21;15.43;71.22
28175;SHT30;59417;44.788;10.334;2023-03-14T13:15:27;15.76;73.45
28175;SHT30;59417;44.788;10.334;2023-03-14T13:17:59;15.59;71.93
28175;SHT30;59417;44.788;10.334;2023-03-14T13:20:30;15.22;72.05
28175;SHT30;59417;44.788;10.334;2023-03-14T13:22:56;15.49;72.14
28175;SHT30;59417;44.788;10.334;2023-03-14T13:25:22;15.77;72.12
28175;SHT30;59417;44.788;10.334;2023-03-14T13:27:49;15.74;72.11
28175;SHT30;59417;44.788;10.334;2023-03-14T13:30:28;15.91;70.53
28175;SHT30;59417;44.788;10.334;2023-03-14T13:32:55;16.07;71.22
28175;SHT30;59417;44.788;10.334;2023-03-14T13:35:27;16.31;69.22
28175;SHT30;59417;44.788;10.334;2023-03-14T13:37:56;16.38;69.07
28175;SHT30;59417;44.788;10.334;2023-03-14T13:40:30;16.57;69.17
28175;SHT30;59417;44.788;10.334;2023-03-14T13:48:28;16.64;67.02
28175;SHT30;59417;44.788;10.334;2023-03-14T13:50:58;16.55;68.84
28175;SHT30;59417;44.788;10.334;2023-03-14T13:53:24;16.48;68.77
28175;SHT30;59417;44.788;10.334;2023-03-14T13:55:51;16.65;69.02
28175;SHT30;59417;44.788;10.334;2023-03-14T13:58:27;16.89;68.56
28175;SHT30;59417;44.788;10.334;2023-03-14T14:03:22;17.53;66.69
28175;SHT30;59417;44.788;10.334;2023-03-14T14:05:48;17.77;66.36
28175;SHT30;59417;44.788;10.334;2023-03-14T14:08:13;17.64;64.18
28175;SHT30;59417;44.788;10.334;2023-03-14T14:10:39;16.78;65.98
28175;SHT30;59417;44.788;10.334;2023-03-14T14:13:08;16.13;68.14
28175;SHT30;59417;44.788;10.334;2023-03-14T14:15:41;16.04;68.75
28175;SHT30;59417;44.788;10.334;2023-03-14T14:18:11;16.13;69.06
28175;SHT30;59417;44.788;10.334;2023-03-14T14:20:44;15.98;67.55
28175;SHT30;59417;44.788;10.334;2023-03-14T14:23:12;15.96;68.30
28175;SHT30;59417;44.788;10.334;2023-03-14T14:25:39;15.90;68.05
28175;SHT30;59417;44.788;10.334;2023-03-14T14:33:27;15.61;68.58
28175;SHT30;59417;44.788;10.334;2023-03-14T14:35:58;15.59;68.93
28175;SHT30;59417;44.788;10.334;2023-03-14T14:38:25;15.49;68.79
28175;SHT30;59417;44.788;10.334;2023-03-14T14:40:54;15.58;69.72
28175;SHT30;59417;44.788;10.334;2023-03-14T14:43:23;15.72;69.91
28175;SHT30;59417;44.788;10.334;2023-03-14T14:45:51;15.86;68.27
28175;SHT30;59417;44.788;10.334;2023-03-14T14:48:21;15.70;68.94
28175;SHT30;59417;44.788;10.334;2023-03-14T14:53:42;15.73;69.45
28175;SHT30;59417;44.788;10.334;2023-03-14T14:56:17;15.66;70.07
28175;SHT30;59417;44.788;10.334;2023-03-14T14:58:45;15.94;69.75
28175;SHT30;59417;44.788;10.334;2023-03-14T15:01:20;16.21;69.69
28175;SHT30;59417;44.788;10.334;2023-03-14T15:03:50;16.28;68.13
28175;SHT30;59417;44.788;10.334;2023-03-14T15:06:17;16.40;68.28
28175;SHT30;59417;44.788;10.334;2023-03-14T15:08:43;16.44;67.92
28175;SHT30;59417;44.788;10.334;2023-03-14T15:11:17;16.61;67.04
28175;SHT30;59417;44.788;10.334;2023-03-14T15:13:42;16.40;67.61
28175;SHT30;59417;44.788;10.334;2023-03-14T15:16:12;16.58;67.64
28175;SHT30;59417;44.788;10.334;2023-03-14T15:18:39;16.78;66.08
28175;SHT30;59417;44.788;10.334;2023-03-14T15:21:05;16.73;66.36
28175;SHT30;59417;44.788;10.334;2023-03-14T15:23:31;16.68;66.92
28175;SHT30;59417;44.788;10.334;2023-03-14T15:25:56;16.86;67.51
28175;SHT30;59417;44.788;10.334;2023-03-14T15:28:24;16.89;65.75
28175;SHT30;59417;44.788;10.334;2023-03-14T15:30:52;16.65;65.91
28175;SHT30;59417;44.788;10.334;2023-03-14T15:33:18;16.68;66.69
28175;SHT30;59417;44.788;10.334;2023-03-14T15:35:45;16.62;67.49
28175;SHT30;59417;44.788;10.334;2023-03-14T15:38:17;16.45;67.54
28175;SHT30;59417;44.788;10.334;2023-03-14T15:40:44;16.57;67.37
28175;SHT30;59417;44.788;10.334;2023-03-14T15:43:10;16.38;67.34
28175;SHT30;59417;44.788;10.334;2023-03-14T15:45:35;16.28;68.43
28175;SHT30;59417;44.788;10.334;2023-03-14T15:48:01;16.27;67.60
28175;SHT30;59417;44.788;10.334;2023-03-14T15:50:27;16.18;67.66
28175;SHT30;59417;44.788;10.334;2023-03-14T15:52:53;16.04;68.86
28175;SHT30;59417;44.788;10.334;2023-03-14T15:55:19;15.80;69.14
28175;SHT30;59417;44.788;10.334;2023-03-14T15:57:44;15.84;69.02
28175;SHT30;59417;44.788;10.334;2023-03-14T16:00:16;15.89;69.67
28175;SHT30;59417;44.788;10.334;2023-03-14T16:02:44;15.86;70.29
28175;SHT30;59417;44.788;10.334;2023-03-14T16:05:11;15.91;69.95
28175;SHT30;59417;44.788;10.334;2023-03-14T16:07:38;15.89;70.31
28175;SHT30;59417;44.788;10.334;2023-03-14T16:10:05;15.90;69.86
28175;SHT30;59417;44.788;10.334;2023-03-14T16:12:32;15.80;69.61
28175;SHT30;59417;44.788;10.334;2023-03-14T16:14:58;15.80;69.99
28175;SHT30;59417;44.788;10.334;2023-03-14T16:17:23;15.80;70.22
28175;SHT30;59417;44.788;10.334;2023-03-14T16:19:49;15.73;70.42
28175;SHT30;59417;44.788;10.334;2023-03-14T16:22:15;15.67;70.59
28175;SHT30;59417;44.788;10.334;2023-03-14T16:24:40;15.63;70.33
28175;SHT30;59417;44.788;10.334;2023-03-14T16:27:06;15.63;70.52
28175;SHT30;59417;44.788;10.334;2023-03-14T16:29:32;15.67;70.00
28175;SHT30;59417;44.788;10.334;2023-03-14T16:31:57;15.56;70.69
28175;SHT30;59417;44.788;10.334;2023-03-14T16:34:23;15.48;69.88
28175;SHT30;59417;44.788;10.334;2023-03-14T16:36:49;15.51;69.92
28175;SHT30;59417;44.788;10.334;2023-03-14T16:39:18;15.43;70.54
28175;SHT30;59417;44.788;10.334;2023-03-14T16:41:44;15.36;71.38
28175;SHT30;59417;44.788;10.334;2023-03-14T16:44:10;15.29;71.98
28175;SHT30;59417;44.788;10.334;2023-03-14T16:46:35;15.29;72.00
28175;SHT30;59417;44.788;10.334;2023-03-14T16:49:02;15.25;72.23